sensor_id;sensor_type;location;lat;lon;timestamp;temperature;humidity
11112;DHT22;5609;49.466;8.468;2024-01-07T00:01:09;6.00;99.90
11112;DHT22;5609;49.466;8.468;2024-01-07T00:03:36;6.10;99.90
11112;DHT22;5609;49.466;8.468;2024-01-07T00:06:06;6.10;99.90
11112;DHT22;5609;49.466;8.468;2024-01-07T00:08:33;6.10;99.90
11112;DHT22;5609;49.466;8.468;2024-01-07T00:11:00;6.10;99.90
11112;DHT22;5609;49.466;8.468;2024-01-07T00:13:26;6.10;99.90
11112;DHT22;5609;49.466;8.468;2024-01-07T00:15:54;6.00;99.90
11112;DHT22;5609;49.466;8.468;2024-01-07T00:18:23;6.10;99.90
11112;DHT22;5609;49.466;8.468;2024-01-07T00:20:50;6.10;99.90
11112;DHT22;5609;49.466;8.468;2024-01-07T00:23:16;6.10;99.90
11112;DHT22;5609;49.466;8.468;2024-01-07T00:25:43;6.20;99.90
11112;DHT22;5609;49.466;8.468;2024-01-07T00:28:10;6.50;99.90
11112;DHT22;5609;49.466;8.468;2024-01-07T00:30:37;6.70;99.90
11112;DHT22;5609;49.466;8.468;2024-01-07T00:33:05;6.80;99.90
11112;DHT22;5609;49.466;8.468;2024-01-07T00:35:33;6.70;99.90
11112;DHT22;5609;49.466;8.468;2024-01-07T00:38:01;6.70;99.90
11112;DHT22;5609;49.466;8.468;2024-01-07T00:40:29;6.80;99.90
11112;DHT22;5609;49.466;8.468;2024-01-07T00:42:55;6.80;99.90
11112;DHT22;5609;49.466;8.468;2024-01-07T00:45:23;6.70;99.90
11112;DHT22;5609;49.466;8.468;2024-01-07T00:47:49;6.50;99.90
11112;DHT22;5609;49.466;8.468;2024-01-07T00:50:20;6.30;99.90
11112;DHT22;5609;49.466;8.468;2024-01-07T00:52:52;6.10;99.90
11112;DHT22;5609;49.466;8.468;2024-01-07T00:55:18;6.10;99.90
11112;DHT22;5609;49.466;8.468;2024-01-07T00:57:48;6.10;99.90
11112;DHT22;5609;49.466;8.468;2024-01-07T01:00:15;6.00;99.90
11112;DHT22;5609;49.466;8.468;2024-01-07T01:02:42;6.00;99.90
11112;DHT22;5609;49.466;8.468;2024-01-07T01:05:09;6.00;99.90
11112;DHT22;5609;49.466;8.468;2024-01-07T01:07:36;5.90;99.90
11112;DHT22;5609;49.466;8.468;2024-01-07T01:10:06;5.90;99.90
11112;DHT22;5609;49.466;8.468;2024-01-07T01:12:33;5.80;99.90
11112;DHT22;5609;49.466;8.468;2024-01-07T01:15:00;5.80;99.90
11112;DHT22;5609;49.466;8.468;2024-01-07T01:17:29;5.80;99.90
11112;DHT22;5609;49.466;8.468;2024-01-07T01:19:56;5.80;99.90
11112;DHT22;5609;49.466;8.468;2024-01-07T01:22:22;5.80;99.90
11112;DHT22;5609;49.466;8.468;2024-01-07T01:24:51;5.90;99.90
11112;DHT22;5609;49.466;8.468;2024-01-07T01:27:20;5.80;99.90
11112;DHT22;5609;49.466;8.468;2024-01-07T01:29:47;5.70;99.90
11112;DHT22;5609;49.466;8.468;2024-01-07T01:32:15;5.90;99.90
11112;DHT22;5609;49.466;8.468;2024-01-07T01:34:41;6.00;99.90
11112;DHT22;5609;49.466;8.468;2024-01-07T01:37:08;6.00;99.90
11112;DHT22;5609;49.466;8.468;2024-01-07T01:39:35;6.00;99.90
11112;DHT22;5609;49.466;8.468;2024-01-07T01:42:04;6.00;99.90
11112;DHT22;5609;49.466;8.468;2024-01-07T01:44:32;5.90;99.90
11112;DHT22;5609;49.466;8.468;2024-01-07T01:47:00;5.90;99.90
11112;DHT22;5609;49.466;8.468;2024-01-07T01:49:28;6.00;99.90
11112;DHT22;5609;49.466;8.468;2024-01-07T01:51:54;5.90;99.90
11112;DHT22;5609;49.466;8.468;2024-01-07T01:54:22;6.20;99.90
11112;DHT22;5609;49.466;8.468;2024-01-07T01:56:49;6.20;99.90
11112;DHT22;5609;49.466;8.468;2024-01-07T01:59:18;6.20;99.90
11112;DHT22;5609;49.466;8.468;2024-01-07T02:01:47;6.20;99.90
11112;DHT22;5609;49.466;8.468;2024-01-07T02:04:14;6.40;99.90
11112;DHT22;5609;49.466;8.468;2024-01-07T02:06:42;6.30;99.90
11112;DHT22;5609;49.466;8.468;2024-01-07T02:09:08;6.30;99.90
11112;DHT22;5609;49.466;8.468;2024-01-07T02:11:34;6.10;99.90
11112;DHT22;5609;49.466;8.468;2024-01-07T02:14:01;6.10;99.90
11112;DHT22;5609;49.466;8.468;2024-01-07T02:16:29;6.00;99.90
11112;DHT22;5609;49.466;8.468;2024-01-07T02:18:57;6.20;99.90
11112;DHT22;5609;49.466;8.468;2024-01-07T02:21:24;6.20;99.90
11112;DHT22;5609;49.466;8.468;2024-01-07T02:23:50;6.30;99.90
11112;DHT22;5609;49.466;8.468;2024-01-07T02:26:21;6.30;99.90
11112;DHT22;5609;49.466;8.468;2024-01-07T02:28:49;6.40;99.90
11112;DHT22;5609;49.466;8.468;2024-01-07T02:31:15;6.40;99.90
11112;DHT22;5609;49.466;8.468;2024-01-07T02:33:42;6.30;99.90
11112;DHT22;5609;49.466;8.468;2024-01-07T02:36:08;6.20;99.90
11112;DHT22;5609;49.466;8.468;2024-01-07T02:38:35;6.30;99.90
11112;DHT22;5609;49.466;8.468;2024-01-07T02:41:02;6.30;99.90
11112;DHT22;5609;49.466;8.468;2024-01-07T02:43:31;6.20;99.90
11112;DHT22;5609;49.466;8.468;2024-01-07T02:45:57;6.20;99.90
11112;DHT22;5609;49.466;8.468;2024-01-07T02:48:24;6.10;99.90
11112;DHT22;5609;49.466;8.468;2024-01-07T02:50:51;5.90;99.90
11112;DHT22;5609;49.466;8.468;2024-01-07T02:53:17;5.80;99.90
11112;DHT22;5609;49.466;8.468;2024-01-07T02:55:44;5.70;99.90
11112;DHT22;5609;49.466;8.468;2024-01-07T02:58:11;5.80;99.90
11112;DHT22;5609;49.466;8.468;2024-01-07T03:00:39;5.80;99.90
11112;DHT22;5609;49.466;8.468;2024-01-07T03:03:07;5.90;99.90
11112;DHT22;5609;49.466;8.468;2024-01-07T03:05:34;5.90;99.90
11112;DHT22;5609;49.466;8.468;2024-01-07T03:08:01;6.00;99.90
11112;DHT22;5609;49.466;8.468;2024-01-07T03:10:28;6.20;99.90
11112;DHT22;5609;49.466;8.468;2024-01-07T03:12:54;6.30;99.90
11112;DHT22;5609;49.466;8.468;2024-01-07T03:15:21;6.40;99.90
11112;DHT22;5609;49.466;8.468;2024-01-07T03:17:49;6.30;99.90
11112;DHT22;5609;49.466;8.468;2024-01-07T03:20:16;6.30;99.90
11112;DHT22;5609;49.466;8.468;2024-01-07T03:22:42;6.20;99.90
11112;DHT22;5609;49.466;8.468;2024-01-07T03:25:09;6.00;99.90
11112;DHT22;5609;49.466;8.468;2024-01-07T03:27:36;5.90;99.90
11112;DHT22;5609;49.466;8.468;2024-01-07T03:30:03;5.90;99.90
11112;DHT22;5609;49.466;8.468;2024-01-07T03:32:31;5.90;99.90
11112;DHT22;5609;49.466;8.468;2024-01-07T03:34:59;5.90;99.90
11112;DHT22;5609;49.466;8.468;2024-01-07T03:37:26;5.80;99.90
11112;DHT22;5609;49.466;8.468;2024-01-07T03:39:53;5.70;99.90
11112;DHT22;5609;49.466;8.468;2024-01-07T03:42:20;5.70;99.90
11112;DHT22;5609;49.466;8.468;2024-01-07T03:44:47;5.80;99.90
11112;DHT22;5609;49.466;8.468;2024-01-07T03:47:14;5.80;99.90
11112;DHT22;5609;49.466;8.468;2024-01-07T03:49:41;5.80;99.90
11112;DHT22;5609;49.466;8.468;2024-01-07T03:52:11;5.80;99.90
11112;DHT22;5609;49.466;8.468;2024-01-07T03:54:37;5.70;99.90
11112;DHT22;5609;49.466;8.468;2024-01-07T03:57:04;5.70;99.90
11112;DHT22;5609;49.466;8.468;2024-01-07T03:59:31;5.90;99.90
11112;DHT22;5609;49.466;8.468;2024-01-07T04:01:58;5.90;99.90
11112;DHT22;5609;49.466;8.468;2024-01-07T04:04:25;6.00;99.90
11112;DHT22;5609;49.466;8.468;2024-01-07T04:06:51;6.10;99.90
11112;DHT22;5609;49.466;8.468;2024-01-07T04:09:21;6.00;99.90
11112;DHT22;5609;49.466;8.468;2024-01-07T04:11:47;6.00;99.90
11112;DHT22;5609;49.466;8.468;2024-01-07T04:14:15;6.10;99.90
11112;DHT22;5609;49.466;8.468;2024-01-07T04:16:42;6.10;99.90
11112;DHT22;5609;49.466;8.468;2024-01-07T04:19:09;6.00;99.90
11112;DHT22;5609;49.466;8.468;2024-01-07T04:21:36;6.00;99.90
11112;DHT22;5609;49.466;8.468;2024-01-07T04:24:03;6.00;99.90
11112;DHT22;5609;49.466;8.468;2024-01-07T04:26:32;5.90;99.90
11112;DHT22;5609;49.466;8.468;2024-01-07T04:28:59;6.00;99.90
11112;DHT22;5609;49.466;8.468;2024-01-07T04:31:25;6.10;99.90
11112;DHT22;5609;49.466;8.468;2024-01-07T04:33:52;6.00;99.90
11112;DHT22;5609;49.466;8.468;2024-01-07T04:36:19;6.00;99.90
11112;DHT22;5609;49.466;8.468;2024-01-07T04:38:45;5.90;99.90
11112;DHT22;5609;49.466;8.468;2024-01-07T04:41:12;6.10;99.90
11112;DHT22;5609;49.466;8.468;2024-01-07T04:43:42;6.20;99.90
11112;DHT22;5609;49.466;8.468;2024-01-07T04:46:11;6.20;99.90
11112;DHT22;5609;49.466;8.468;2024-01-07T04:48:39;6.20;99.90
11112;DHT22;5609;49.466;8.468;2024-01-07T04:51:06;6.10;99.90
11112;DHT22;5609;49.466;8.468;2024-01-07T04:53:36;6.10;99.90
11112;DHT22;5609;49.466;8.468;2024-01-07T04:56:03;6.00;99.90
11112;DHT22;5609;49.466;8.468;2024-01-07T04:58:30;6.00;99.90
11112;DHT22;5609;49.466;8.468;2024-01-07T05:00:58;6.00;99.90
11112;DHT22;5609;49.466;8.468;2024-01-07T05:03:26;6.00;99.90
11112;DHT22;5609;49.466;8.468;2024-01-07T05:05:52;6.00;99.90
11112;DHT22;5609;49.466;8.468;2024-01-07T05:08:20;6.10;99.90
11112;DHT22;5609;49.466;8.468;2024-01-07T05:10:46;6.10;99.90
11112;DHT22;5609;49.466;8.468;2024-01-07T05:13:13;6.30;99.90
11112;DHT22;5609;49.466;8.468;2024-01-07T05:15:40;6.20;99.90
11112;DHT22;5609;49.466;8.468;2024-01-07T05:18:10;6.10;99.90
11112;DHT22;5609;49.466;8.468;2024-01-07T05:20:37;6.00;99.90
11112;DHT22;5609;49.466;8.468;2024-01-07T05:23:05;5.90;99.90
11112;DHT22;5609;49.466;8.468;2024-01-07T05:25:32;5.80;99.90
11112;DHT22;5609;49.466;8.468;2024-01-07T05:27:59;5.90;99.90
11112;DHT22;5609;49.466;8.468;2024-01-07T05:30:26;5.90;99.90
11112;DHT22;5609;49.466;8.468;2024-01-07T05:32:53;5.80;99.90
11112;DHT22;5609;49.466;8.468;2024-01-07T05:35:21;5.80;99.90
11112;DHT22;5609;49.466;8.468;2024-01-07T05:37:49;5.70;99.90
11112;DHT22;5609;49.466;8.468;2024-01-07T05:40:16;5.70;99.90
11112;DHT22;5609;49.466;8.468;2024-01-07T05:42:42;5.60;99.90
11112;DHT22;5609;49.466;8.468;2024-01-07T05:45:09;5.50;99.90
11112;DHT22;5609;49.466;8.468;2024-01-07T05:47:36;5.60;99.90
11112;DHT22;5609;49.466;8.468;2024-01-07T05:50:03;5.60;99.90
11112;DHT22;5609;49.466;8.468;2024-01-07T05:52:34;5.70;99.90
11112;DHT22;5609;49.466;8.468;2024-01-07T05:55:01;5.70;99.90
11112;DHT22;5609;49.466;8.468;2024-01-07T05:57:27;5.70;99.90
11112;DHT22;5609;49.466;8.468;2024-01-07T05:59:54;5.60;99.90
11112;DHT22;5609;49.466;8.468;2024-01-07T06:02:21;5.50;99.90
11112;DHT22;5609;49.466;8.468;2024-01-07T06:04:48;5.50;99.90
11112;DHT22;5609;49.466;8.468;2024-01-07T06:07:15;5.60;99.90
11112;DHT22;5609;49.466;8.468;2024-01-07T06:09:43;5.60;99.90
11112;DHT22;5609;49.466;8.468;2024-01-07T06:12:10;5.70;99.90
11112;DHT22;5609;49.466;8.468;2024-01-07T06:14:37;5.60;99.90
11112;DHT22;5609;49.466;8.468;2024-01-07T06:17:04;5.60;99.90
11112;DHT22;5609;49.466;8.468;2024-01-07T06:19:31;5.60;99.90
11112;DHT22;5609;49.466;8.468;2024-01-07T06:21:57;5.60;99.90
11112;DHT22;5609;49.466;8.468;2024-01-07T06:24:24;5.60;99.90
11112;DHT22;5609;49.466;8.468;2024-01-07T06:26:52;5.70;99.90
11112;DHT22;5609;49.466;8.468;2024-01-07T06:29:19;5.70;99.90
11112;DHT22;5609;49.466;8.468;2024-01-07T06:31:46;5.60;99.90
11112;DHT22;5609;49.466;8.468;2024-01-07T06:34:14;5.60;99.90
11112;DHT22;5609;49.466;8.468;2024-01-07T06:36:40;5.60;99.90
11112;DHT22;5609;49.466;8.468;2024-01-07T06:39:07;5.60;99.90
11112;DHT22;5609;49.466;8.468;2024-01-07T06:41:34;5.80;99.90
11112;DHT22;5609;49.466;8.468;2024-01-07T06:44:03;5.70;99.90
11112;DHT22;5609;49.466;8.468;2024-01-07T06:46:30;5.60;99.90
11112;DHT22;5609;49.466;8.468;2024-01-07T06:48:59;5.70;99.90
11112;DHT22;5609;49.466;8.468;2024-01-07T06:51:28;5.70;99.90
11112;DHT22;5609;49.466;8.468;2024-01-07T06:53:55;5.70;99.90
11112;DHT22;5609;49.466;8.468;2024-01-07T06:56:21;5.80;99.90
11112;DHT22;5609;49.466;8.468;2024-01-07T06:58:49;5.80;99.90
11112;DHT22;5609;49.466;8.468;2024-01-07T07:01:19;5.70;99.90
11112;DHT22;5609;49.466;8.468;2024-01-07T07:03:46;5.70;99.90
11112;DHT22;5609;49.466;8.468;2024-01-07T07:06:13;5.60;99.90
11112;DHT22;5609;49.466;8.468;2024-01-07T07:08:40;5.70;99.90
11112;DHT22;5609;49.466;8.468;2024-01-07T07:11:07;5.70;99.90
11112;DHT22;5609;49.466;8.468;2024-01-07T07:13:33;5.60;99.90
11112;DHT22;5609;49.466;8.468;2024-01-07T07:16:01;5.70;99.90
11112;DHT22;5609;49.466;8.468;2024-01-07T07:18:29;5.60;99.90
11112;DHT22;5609;49.466;8.468;2024-01-07T07:20:55;5.60;99.90
11112;DHT22;5609;49.466;8.468;2024-01-07T07:23:22;5.70;99.90
11112;DHT22;5609;49.466;8.468;2024-01-07T07:25:49;5.80;99.90
11112;DHT22;5609;49.466;8.468;2024-01-07T07:28:16;5.80;99.90
11112;DHT22;5609;49.466;8.468;2024-01-07T07:30:42;6.10;99.90
11112;DHT22;5609;49.466;8.468;2024-01-07T07:33:10;6.00;99.90
11112;DHT22;5609;49.466;8.468;2024-01-07T07:35:39;5.90;99.90
11112;DHT22;5609;49.466;8.468;2024-01-07T07:38:08;6.00;99.90
11112;DHT22;5609;49.466;8.468;2024-01-07T07:40:35;6.00;99.90
11112;DHT22;5609;49.466;8.468;2024-01-07T07:43:02;6.20;99.90
11112;DHT22;5609;49.466;8.468;2024-01-07T07:45:29;6.20;99.90
11112;DHT22;5609;49.466;8.468;2024-01-07T07:47:55;6.40;99.90
11112;DHT22;5609;49.466;8.468;2024-01-07T07:50:22;6.20;99.90
11112;DHT22;5609;49.466;8.468;2024-01-07T07:52:50;6.30;99.90
11112;DHT22;5609;49.466;8.468;2024-01-07T07:55:17;6.20;99.90
11112;DHT22;5609;49.466;8.468;2024-01-07T07:57:44;6.10;99.90
11112;DHT22;5609;49.466;8.468;2024-01-07T08:00:12;6.00;99.90
11112;DHT22;5609;49.466;8.468;2024-01-07T08:02:39;6.10;99.90
11112;DHT22;5609;49.466;8.468;2024-01-07T08:05:06;6.20;99.90
11112;DHT22;5609;49.466;8.468;2024-01-07T08:07:33;6.20;99.90
11112;DHT22;5609;49.466;8.468;2024-01-07T08:10:01;6.60;99.90
11112;DHT22;5609;49.466;8.468;2024-01-07T08:12:28;7.30;99.90
11112;DHT22;5609;49.466;8.468;2024-01-07T08:14:55;7.80;99.90
11112;DHT22;5609;49.466;8.468;2024-01-07T08:17:22;8.10;99.90
11112;DHT22;5609;49.466;8.468;2024-01-07T08:19:49;8.20;99.90
11112;DHT22;5609;49.466;8.468;2024-01-07T08:22:16;7.80;99.90
11112;DHT22;5609;49.466;8.468;2024-01-07T08:24:42;8.10;99.90
11112;DHT22;5609;49.466;8.468;2024-01-07T08:27:11;8.00;99.90
11112;DHT22;5609;49.466;8.468;2024-01-07T08:29:38;8.00;99.90
11112;DHT22;5609;49.466;8.468;2024-01-07T08:32:05;8.00;99.90
11112;DHT22;5609;49.466;8.468;2024-01-07T08:34:35;7.50;99.90
11112;DHT22;5609;49.466;8.468;2024-01-07T08:37:01;7.40;99.90
11112;DHT22;5609;49.466;8.468;2024-01-07T08:39:28;7.20;99.90
11112;DHT22;5609;49.466;8.468;2024-01-07T08:41:56;6.90;99.90
11112;DHT22;5609;49.466;8.468;2024-01-07T08:44:24;6.70;99.90
11112;DHT22;5609;49.466;8.468;2024-01-07T08:46:51;6.70;99.90
11112;DHT22;5609;49.466;8.468;2024-01-07T08:49:18;6.50;99.90
11112;DHT22;5609;49.466;8.468;2024-01-07T08:51:45;6.60;99.90
11112;DHT22;5609;49.466;8.468;2024-01-07T08:54:11;6.50;99.90
11112;DHT22;5609;49.466;8.468;2024-01-07T08:56:38;6.30;99.90
11112;DHT22;5609;49.466;8.468;2024-01-07T08:59:05;6.00;99.90
11112;DHT22;5609;49.466;8.468;2024-01-07T09:01:33;5.60;99.90
11112;DHT22;5609;49.466;8.468;2024-01-07T09:04:00;5.50;99.90
11112;DHT22;5609;49.466;8.468;2024-01-07T09:06:27;5.30;99.90
11112;DHT22;5609;49.466;8.468;2024-01-07T09:08:54;5.20;99.90
11112;DHT22;5609;49.466;8.468;2024-01-07T09:11:21;5.20;99.90
11112;DHT22;5609;49.466;8.468;2024-01-07T09:13:49;5.10;99.90
11112;DHT22;5609;49.466;8.468;2024-01-07T09:16:16;4.90;99.90
11112;DHT22;5609;49.466;8.468;2024-01-07T09:18:45;4.90;99.90
11112;DHT22;5609;49.466;8.468;2024-01-07T09:21:12;4.90;99.90
11112;DHT22;5609;49.466;8.468;2024-01-07T09:23:39;4.80;99.90
11112;DHT22;5609;49.466;8.468;2024-01-07T09:26:07;4.80;99.90
11112;DHT22;5609;49.466;8.468;2024-01-07T09:28:34;4.80;99.90
11112;DHT22;5609;49.466;8.468;2024-01-07T09:31:00;4.80;99.90
11112;DHT22;5609;49.466;8.468;2024-01-07T09:33:27;4.80;99.90
11112;DHT22;5609;49.466;8.468;2024-01-07T09:35:55;4.80;99.90
11112;DHT22;5609;49.466;8.468;2024-01-07T09:38:22;4.90;99.90
11112;DHT22;5609;49.466;8.468;2024-01-07T09:40:54;5.00;99.90
11112;DHT22;5609;49.466;8.468;2024-01-07T09:43:29;5.10;99.90
11112;DHT22;5609;49.466;8.468;2024-01-07T09:45:56;5.20;99.90
11112;DHT22;5609;49.466;8.468;2024-01-07T09:48:25;5.20;99.90
11112;DHT22;5609;49.466;8.468;2024-01-07T09:50:52;5.20;99.90
11112;DHT22;5609;49.466;8.468;2024-01-07T09:53:25;5.20;99.90
11112;DHT22;5609;49.466;8.468;2024-01-07T09:56:01;5.20;99.90
11112;DHT22;5609;49.466;8.468;2024-01-07T09:58:34;5.20;99.90
11112;DHT22;5609;49.466;8.468;2024-01-07T10:01:01;5.30;99.90
11112;DHT22;5609;49.466;8.468;2024-01-07T10:03:30;5.30;99.90
11112;DHT22;5609;49.466;8.468;2024-01-07T10:05:57;5.40;99.90
11112;DHT22;5609;49.466;8.468;2024-01-07T10:08:25;5.40;99.90
11112;DHT22;5609;49.466;8.468;2024-01-07T10:10:54;5.40;99.90
11112;DHT22;5609;49.466;8.468;2024-01-07T10:13:23;5.30;99.90
11112;DHT22;5609;49.466;8.468;2024-01-07T10:15:49;5.20;99.90
11112;DHT22;5609;49.466;8.468;2024-01-07T10:18:18;5.20;99.90
11112;DHT22;5609;49.466;8.468;2024-01-07T10:20:44;5.20;99.90
11112;DHT22;5609;49.466;8.468;2024-01-07T10:23:12;5.20;99.90
11112;DHT22;5609;49.466;8.468;2024-01-07T10:25:41;5.20;99.90
11112;DHT22;5609;49.466;8.468;2024-01-07T10:28:08;5.20;99.90
11112;DHT22;5609;49.466;8.468;2024-01-07T10:30:38;5.10;99.90
11112;DHT22;5609;49.466;8.468;2024-01-07T10:33:07;5.20;99.90
11112;DHT22;5609;49.466;8.468;2024-01-07T10:35:35;5.10;99.90
11112;DHT22;5609;49.466;8.468;2024-01-07T10:38:03;5.10;99.90
11112;DHT22;5609;49.466;8.468;2024-01-07T10:40:31;5.20;99.90
11112;DHT22;5609;49.466;8.468;2024-01-07T10:43:03;5.20;99.90
11112;DHT22;5609;49.466;8.468;2024-01-07T10:45:31;5.10;99.90
11112;DHT22;5609;49.466;8.468;2024-01-07T10:48:00;5.20;99.90
11112;DHT22;5609;49.466;8.468;2024-01-07T10:50:31;5.20;99.90
11112;DHT22;5609;49.466;8.468;2024-01-07T10:53:03;5.30;99.90
11112;DHT22;5609;49.466;8.468;2024-01-07T10:55:34;5.40;99.90
11112;DHT22;5609;49.466;8.468;2024-01-07T10:58:05;5.30;99.90
11112;DHT22;5609;49.466;8.468;2024-01-07T11:00:32;5.40;99.90
11112;DHT22;5609;49.466;8.468;2024-01-07T11:03:07;5.50;99.90
11112;DHT22;5609;49.466;8.468;2024-01-07T11:05:40;5.70;99.90
11112;DHT22;5609;49.466;8.468;2024-01-07T11:08:18;5.50;99.90
11112;DHT22;5609;49.466;8.468;2024-01-07T11:10:48;5.60;99.90
11112;DHT22;5609;49.466;8.468;2024-01-07T11:16:10;5.50;99.90
11112;DHT22;5609;49.466;8.468;2024-01-07T11:18:45;5.70;99.90
11112;DHT22;5609;49.466;8.468;2024-01-07T11:21:20;5.60;99.90
11112;DHT22;5609;49.466;8.468;2024-01-07T11:23:47;5.50;99.90
11112;DHT22;5609;49.466;8.468;2024-01-07T11:26:14;5.50;99.90
11112;DHT22;5609;49.466;8.468;2024-01-07T11:28:49;5.40;99.90
11112;DHT22;5609;49.466;8.468;2024-01-07T11:31:19;5.20;99.90
11112;DHT22;5609;49.466;8.468;2024-01-07T11:33:47;5.20;99.90
11112;DHT22;5609;49.466;8.468;2024-01-07T11:36:15;5.30;99.90
11112;DHT22;5609;49.466;8.468;2024-01-07T11:38:43;5.40;99.90
11112;DHT22;5609;49.466;8.468;2024-01-07T11:41:12;5.50;99.90
11112;DHT22;5609;49.466;8.468;2024-01-07T11:43:52;5.50;99.90
11112;DHT22;5609;49.466;8.468;2024-01-07T11:46:21;5.60;99.90
11112;DHT22;5609;49.466;8.468;2024-01-07T11:48:48;5.70;99.90
11112;DHT22;5609;49.466;8.468;2024-01-07T11:51:15;5.90;99.90
11112;DHT22;5609;49.466;8.468;2024-01-07T11:53:46;5.80;99.90
11112;DHT22;5609;49.466;8.468;2024-01-07T11:56:14;5.70;99.90
11112;DHT22;5609;49.466;8.468;2024-01-07T11:58:45;5.70;99.90
11112;DHT22;5609;49.466;8.468;2024-01-07T12:01:14;5.70;99.90
11112;DHT22;5609;49.466;8.468;2024-01-07T12:03:46;5.60;99.90
11112;DHT22;5609;49.466;8.468;2024-01-07T12:06:15;5.50;99.90
11112;DHT22;5609;49.466;8.468;2024-01-07T12:08:43;5.50;99.90
11112;DHT22;5609;49.466;8.468;2024-01-07T12:11:11;5.20;99.90
11112;DHT22;5609;49.466;8.468;2024-01-07T12:13:40;5.10;99.90
11112;DHT22;5609;49.466;8.468;2024-01-07T12:16:08;5.00;99.90
11112;DHT22;5609;49.466;8.468;2024-01-07T12:18:36;4.90;99.90
11112;DHT22;5609;49.466;8.468;2024-01-07T12:21:05;4.80;99.90
11112;DHT22;5609;49.466;8.468;2024-01-07T12:23:35;4.80;99.90
11112;DHT22;5609;49.466;8.468;2024-01-07T12:26:07;4.70;99.90
11112;DHT22;5609;49.466;8.468;2024-01-07T12:28:34;4.70;99.90
11112;DHT22;5609;49.466;8.468;2024-01-07T12:31:02;4.60;99.90
11112;DHT22;5609;49.466;8.468;2024-01-07T12:33:29;4.60;99.90
11112;DHT22;5609;49.466;8.468;2024-01-07T12:35:57;4.50;99.90
11112;DHT22;5609;49.466;8.468;2024-01-07T12:38:25;4.40;99.90
11112;DHT22;5609;49.466;8.468;2024-01-07T12:40:53;4.40;99.90
11112;DHT22;5609;49.466;8.468;2024-01-07T12:43:20;4.40;99.90
11112;DHT22;5609;49.466;8.468;2024-01-07T12:45:48;4.40;99.90
11112;DHT22;5609;49.466;8.468;2024-01-07T12:48:15;4.50;99.90
11112;DHT22;5609;49.466;8.468;2024-01-07T12:50:41;4.50;99.90
11112;DHT22;5609;49.466;8.468;2024-01-07T12:53:10;4.40;99.90
11112;DHT22;5609;49.466;8.468;2024-01-07T12:55:41;4.40;99.90
11112;DHT22;5609;49.466;8.468;2024-01-07T12:58:08;4.40;99.90
11112;DHT22;5609;49.466;8.468;2024-01-07T13:00:34;4.30;99.90
11112;DHT22;5609;49.466;8.468;2024-01-07T13:03:01;4.20;99.90
11112;DHT22;5609;49.466;8.468;2024-01-07T13:05:30;4.10;99.90
11112;DHT22;5609;49.466;8.468;2024-01-07T13:07:56;4.20;99.90
11112;DHT22;5609;49.466;8.468;2024-01-07T13:10:23;4.10;99.90
11112;DHT22;5609;49.466;8.468;2024-01-07T13:12:52;4.10;99.90
11112;DHT22;5609;49.466;8.468;2024-01-07T13:15:18;4.10;99.90
11112;DHT22;5609;49.466;8.468;2024-01-07T13:17:48;4.00;99.90
11112;DHT22;5609;49.466;8.468;2024-01-07T13:20:14;3.90;99.90
11112;DHT22;5609;49.466;8.468;2024-01-07T13:22:42;4.00;99.90
11112;DHT22;5609;49.466;8.468;2024-01-07T13:25:09;3.80;99.90
11112;DHT22;5609;49.466;8.468;2024-01-07T13:27:36;3.80;99.90
11112;DHT22;5609;49.466;8.468;2024-01-07T13:30:06;3.90;99.90
11112;DHT22;5609;49.466;8.468;2024-01-07T13:32:32;3.80;99.90
11112;DHT22;5609;49.466;8.468;2024-01-07T13:35:02;3.80;99.90
11112;DHT22;5609;49.466;8.468;2024-01-07T13:37:29;3.80;99.90
11112;DHT22;5609;49.466;8.468;2024-01-07T13:39:57;3.80;99.90
11112;DHT22;5609;49.466;8.468;2024-01-07T13:42:26;3.80;99.90
11112;DHT22;5609;49.466;8.468;2024-01-07T13:44:53;3.70;99.90
11112;DHT22;5609;49.466;8.468;2024-01-07T13:47:21;3.60;99.90
11112;DHT22;5609;49.466;8.468;2024-01-07T13:49:48;3.60;99.90
11112;DHT22;5609;49.466;8.468;2024-01-07T13:52:14;3.50;99.90
11112;DHT22;5609;49.466;8.468;2024-01-07T13:54:41;3.50;99.90
11112;DHT22;5609;49.466;8.468;2024-01-07T13:57:08;3.40;99.90
11112;DHT22;5609;49.466;8.468;2024-01-07T13:59:38;3.40;99.90
11112;DHT22;5609;49.466;8.468;2024-01-07T14:02:06;3.40;99.90
11112;DHT22;5609;49.466;8.468;2024-01-07T14:04:34;3.40;99.90
11112;DHT22;5609;49.466;8.468;2024-01-07T14:07:01;3.40;99.90
11112;DHT22;5609;49.466;8.468;2024-01-07T14:09:29;3.50;99.90
11112;DHT22;5609;49.466;8.468;2024-01-07T14:11:57;3.50;99.90
11112;DHT22;5609;49.466;8.468;2024-01-07T14:14:23;3.40;99.90
11112;DHT22;5609;49.466;8.468;2024-01-07T14:16:50;3.40;99.90
11112;DHT22;5609;49.466;8.468;2024-01-07T14:19:17;3.40;99.90
11112;DHT22;5609;49.466;8.468;2024-01-07T14:21:45;3.40;99.90
11112;DHT22;5609;49.466;8.468;2024-01-07T15:13:47;2.90;99.90
11112;DHT22;5609;49.466;8.468;2024-01-07T15:16:14;2.90;99.90
11112;DHT22;5609;49.466;8.468;2024-01-07T15:18:42;2.80;99.90
11112;DHT22;5609;49.466;8.468;2024-01-07T15:21:10;2.80;99.90
11112;DHT22;5609;49.466;8.468;2024-01-07T15:23:36;2.80;99.90
11112;DHT22;5609;49.466;8.468;2024-01-07T15:26:04;2.80;99.90
11112;DHT22;5609;49.466;8.468;2024-01-07T15:28:31;2.70;99.90
11112;DHT22;5609;49.466;8.468;2024-01-07T15:40:50;2.70;99.90
11112;DHT22;5609;49.466;8.468;2024-01-07T15:43:19;2.40;99.90
11112;DHT22;5609;49.466;8.468;2024-01-07T15:45:47;2.30;99.90
11112;DHT22;5609;49.466;8.468;2024-01-07T15:48:16;2.30;99.90
11112;DHT22;5609;49.466;8.468;2024-01-07T15:50:43;2.30;99.90
11112;DHT22;5609;49.466;8.468;2024-01-07T15:53:10;2.30;99.90
11112;DHT22;5609;49.466;8.468;2024-01-07T15:55:37;2.30;99.90
11112;DHT22;5609;49.466;8.468;2024-01-07T15:58:04;2.20;99.90
11112;DHT22;5609;49.466;8.468;2024-01-07T16:00:31;2.20;99.90
11112;DHT22;5609;49.466;8.468;2024-01-07T16:02:57;2.20;99.90
11112;DHT22;5609;49.466;8.468;2024-01-07T16:05:26;2.20;99.90
11112;DHT22;5609;49.466;8.468;2024-01-07T16:07:55;2.20;99.90
11112;DHT22;5609;49.466;8.468;2024-01-07T16:37:31;2.20;99.90
11112;DHT22;5609;49.466;8.468;2024-01-07T16:39:59;1.50;99.90
11112;DHT22;5609;49.466;8.468;2024-01-07T16:42:28;1.60;99.90
11112;DHT22;5609;49.466;8.468;2024-01-07T16:44:57;1.60;99.90
11112;DHT22;5609;49.466;8.468;2024-01-07T16:47:23;1.60;99.90
11112;DHT22;5609;49.466;8.468;2024-01-07T16:49:50;1.60;99.90
11112;DHT22;5609;49.466;8.468;2024-01-07T19:03:08;1.50;99.90
11112;DHT22;5609;49.466;8.468;2024-01-07T19:05:41;0.40;99.90
11112;DHT22;5609;49.466;8.468;2024-01-07T19:08:10;0.30;99.90
11112;DHT22;5609;49.466;8.468;2024-01-07T19:10:37;0.30;99.90
11112;DHT22;5609;49.466;8.468;2024-01-07T19:13:05;0.20;99.90
11112;DHT22;5609;49.466;8.468;2024-01-07T19:15:40;0.20;99.90
11112;DHT22;5609;49.466;8.468;2024-01-07T19:18:10;0.20;99.90
11112;DHT22;5609;49.466;8.468;2024-01-07T19:20:38;0.20;99.90
11112;DHT22;5609;49.466;8.468;2024-01-07T19:23:07;0.30;99.90
11112;DHT22;5609;49.466;8.468;2024-01-07T19:25:36;0.20;99.90
11112;DHT22;5609;49.466;8.468;2024-01-07T19:28:03;0.20;99.90
11112;DHT22;5609;49.466;8.468;2024-01-07T19:30:31;0.20;99.90
11112;DHT22;5609;49.466;8.468;2024-01-07T19:32:59;0.10;99.90
11112;DHT22;5609;49.466;8.468;2024-01-07T19:35:28;0.10;99.90
11112;DHT22;5609;49.466;8.468;2024-01-07T19:37:55;0.10;99.90
11112;DHT22;5609;49.466;8.468;2024-01-07T19:40:23;0.20;99.90
11112;DHT22;5609;49.466;8.468;2024-01-07T19:42:51;0.20;99.90
11112;DHT22;5609;49.466;8.468;2024-01-07T19:45:20;0.20;99.90